createdAt,value
2022-12-08T00:01:27.334Z,16.90
2022-12-08T00:03:54.589Z,20.55
2022-12-08T00:06:26.818Z,18.57
2022-12-08T00:08:53.508Z,20.35
2022-12-08T00:11:20.183Z,18.08
2022-12-08T00:13:48.223Z,19.48
2022-12-08T00:16:14.925Z,19.80
2022-12-08T00:18:41.612Z,20.17
2022-12-08T00:21:08.331Z,21.35
2022-12-08T00:23:35.019Z,20.98
2022-12-08T00:26:03.056Z,16.85
2022-12-08T00:28:29.809Z,18.25
2022-12-08T00:30:58.100Z,19.17
2022-12-08T00:33:24.918Z,17.80
2022-12-08T00:35:51.657Z,20.98
2022-12-08T00:38:18.405Z,19.45
2022-12-08T00:40:45.590Z,18.00
2022-12-08T00:43:12.264Z,20.00
2022-12-08T00:45:39.221Z,20.05
2022-12-08T00:48:07.639Z,21.50
2022-12-08T00:50:34.752Z,21.08
2022-12-08T00:53:01.456Z,19.08
2022-12-08T00:55:28.160Z,20.93
2022-12-08T00:57:54.902Z,18.48
2022-12-08T01:00:21.718Z,24.88
2022-12-08T01:02:48.480Z,21.10
2022-12-08T01:05:16.653Z,19.60
2022-12-08T01:07:43.408Z,19.07
2022-12-08T01:10:10.235Z,18.42
2022-12-08T01:12:36.925Z,18.75
2022-12-08T01:15:04.179Z,20.67
2022-12-08T01:17:30.879Z,20.40
2022-12-08T01:19:57.572Z,19.60
2022-12-08T01:22:26.156Z,21.20
2022-12-08T01:24:52.874Z,18.45
2022-12-08T01:27:19.612Z,17.77
2022-12-08T01:29:46.308Z,21.38
2022-12-08T01:32:13.003Z,20.50
2022-12-08T01:34:39.762Z,17.85
2022-12-08T01:37:06.482Z,18.05
2022-12-08T01:39:35.145Z,21.25
2022-12-08T01:42:01.843Z,19.08
2022-12-08T01:44:55.163Z,19.00
2022-12-08T01:47:25.479Z,20.83
2022-12-08T01:49:52.170Z,23.02
2022-12-08T01:52:25.426Z,19.98
2022-12-08T01:54:57.665Z,18.88
2022-12-08T01:57:28.562Z,21.57
2022-12-08T02:00:00.966Z,19.60
2022-12-08T02:02:33.501Z,21.25
2022-12-08T02:05:00.379Z,21.30
2022-12-08T02:07:27.630Z,20.98
2022-12-08T02:09:55.782Z,19.90
2022-12-08T02:12:22.556Z,19.67
2022-12-08T02:14:49.374Z,19.77
2022-12-08T02:17:27.973Z,23.25
2022-12-08T02:20:16.867Z,22.42
2022-12-08T02:22:51.863Z,20.53
2022-12-08T02:25:26.321Z,24.50
2022-12-08T02:28:04.752Z,21.38
2022-12-08T02:30:43.166Z,24.38
2022-12-08T02:33:27.862Z,21.85
2022-12-08T02:35:59.907Z,25.50
2022-12-08T02:38:38.513Z,21.35
2022-12-08T02:41:20.573Z,21.45
2022-12-08T02:43:51.178Z,21.92
2022-12-08T02:46:22.704Z,22.63
2022-12-08T02:48:51.571Z,21.70
2022-12-08T02:51:19.888Z,20.60
2022-12-08T02:53:47.917Z,22.52
2022-12-08T02:56:33.134Z,20.90
2022-12-08T02:59:26.999Z,22.10
2022-12-08T03:02:08.538Z,21.60
2022-12-08T03:04:41.831Z,20.50
2022-12-08T03:07:20.121Z,21.17
2022-12-08T03:09:51.411Z,19.80
2022-12-08T03:12:22.591Z,21.98
2022-12-08T03:14:53.186Z,22.73
2022-12-08T03:17:23.434Z,21.90
2022-12-08T03:19:50.349Z,20.75
2022-12-08T03:22:24.016Z,21.75
2022-12-08T03:24:51.523Z,22.63
2022-12-08T03:27:21.520Z,21.93
2022-12-08T03:29:51.019Z,21.85
2022-12-08T03:32:23.531Z,20.80
2022-12-08T03:34:51.616Z,21.67
2022-12-08T03:37:20.687Z,20.05
2022-12-08T03:39:47.639Z,23.23
2022-12-08T03:42:14.365Z,21.20
2022-12-08T03:44:41.082Z,21.75
2022-12-08T03:47:07.757Z,23.85
2022-12-08T03:49:34.476Z,23.73
2022-12-08T03:52:01.165Z,24.13
2022-12-08T03:54:29.191Z,24.20
2022-12-08T03:56:55.882Z,19.77
2022-12-08T03:59:22.565Z,20.65
2022-12-08T04:01:49.259Z,21.67
2022-12-08T04:04:16.044Z,19.63
2022-12-08T04:06:42.780Z,21.20
2022-12-08T04:09:09.545Z,21.85
2022-12-08T04:11:37.556Z,23.65
2022-12-08T04:14:04.257Z,22.00
2022-12-08T04:16:31.053Z,22.37
2022-12-08T04:18:57.787Z,23.95
2022-12-08T04:21:24.440Z,25.15
2022-12-08T04:23:53.833Z,26.20
2022-12-08T04:26:24.348Z,23.38
2022-12-08T04:28:52.454Z,23.57
2022-12-08T04:31:19.167Z,24.10
2022-12-08T04:33:45.935Z,23.65
2022-12-08T04:36:12.664Z,22.10
2022-12-08T04:38:39.357Z,24.05
2022-12-08T04:41:06.188Z,21.20
2022-12-08T04:43:32.844Z,23.15
2022-12-08T04:46:00.999Z,25.52
2022-12-08T04:48:27.664Z,22.10
2022-12-08T04:50:54.318Z,23.33
2022-12-08T04:53:20.969Z,23.83
2022-12-08T04:55:47.830Z,24.65
2022-12-08T04:58:16.825Z,23.70
2022-12-08T05:00:44.047Z,25.50
2022-12-08T05:03:12.999Z,22.30
2022-12-08T05:05:40.823Z,22.30
2022-12-08T05:08:08.305Z,24.90
2022-12-08T05:10:35.026Z,22.73
2022-12-08T05:13:01.778Z,24.27
2022-12-08T05:15:28.418Z,22.60
2022-12-08T05:17:55.171Z,26.57
2022-12-08T05:20:23.339Z,23.83
2022-12-08T05:22:50.051Z,23.52
2022-12-08T05:25:16.929Z,27.30
2022-12-08T05:27:43.569Z,24.70
2022-12-08T05:30:12.513Z,26.97
2022-12-08T05:32:39.258Z,23.50
2022-12-08T05:35:06.845Z,25.10
2022-12-08T05:37:34.926Z,21.27
2022-12-08T05:40:02.057Z,25.90
2022-12-08T05:42:29.028Z,25.40
2022-12-08T05:44:55.734Z,20.45
2022-12-08T05:47:22.364Z,21.63
2022-12-08T05:49:49.143Z,23.75
2022-12-08T05:52:15.851Z,25.52
2022-12-08T05:54:43.944Z,23.33
2022-12-08T05:57:10.631Z,21.55
2022-12-08T05:59:37.404Z,23.58
2022-12-08T06:02:04.163Z,21.40
2022-12-08T06:04:31.512Z,23.83
2022-12-08T06:06:58.117Z,23.45
2022-12-08T06:09:24.918Z,23.33
2022-12-08T06:11:52.953Z,24.02
2022-12-08T06:14:19.914Z,23.10
2022-12-08T06:16:48.242Z,21.80
2022-12-08T06:19:15.797Z,19.83
2022-12-08T06:21:42.454Z,20.50
2022-12-08T06:24:09.208Z,22.48
2022-12-08T06:26:35.914Z,20.15
2022-12-08T06:29:04.152Z,20.88
2022-12-08T06:31:34.523Z,20.37
2022-12-08T06:34:01.218Z,21.05
2022-12-08T06:36:28.196Z,22.92
2022-12-08T06:38:55.216Z,24.42
2022-12-08T06:41:25.514Z,19.17
2022-12-08T06:43:52.310Z,19.47
2022-12-08T06:46:20.842Z,23.20
2022-12-08T06:48:52.065Z,21.15
2022-12-08T06:51:20.590Z,21.05
2022-12-08T06:53:47.650Z,24.63
2022-12-08T06:56:15.223Z,21.47
2022-12-08T06:58:45.050Z,21.20
2022-12-08T07:01:15.674Z,23.52
2022-12-08T07:03:43.883Z,23.95
2022-12-08T07:06:15.229Z,23.13
2022-12-08T07:08:41.955Z,21.00
2022-12-08T07:11:09.302Z,20.05
2022-12-08T07:13:36.022Z,20.67
2022-12-08T07:16:05.580Z,21.98
2022-12-08T07:18:32.343Z,22.17
2022-12-08T07:21:05.029Z,20.23
2022-12-08T07:23:34.384Z,22.33
2022-12-08T07:26:01.430Z,23.88
2022-12-08T07:28:30.309Z,17.95
2022-12-08T07:30:56.982Z,18.45
2022-12-08T07:33:23.663Z,19.10
2022-12-08T07:35:54.587Z,15.88
2022-12-08T07:38:23.092Z,16.85
2022-12-08T07:40:52.113Z,17.85
2022-12-08T07:43:19.105Z,15.35
2022-12-08T07:45:46.462Z,14.77
2022-12-08T07:48:13.344Z,16.55
2022-12-08T07:50:41.320Z,14.48
2022-12-08T07:53:09.705Z,15.38
2022-12-08T07:55:43.589Z,15.55
2022-12-08T07:58:10.800Z,15.63
2022-12-08T08:00:37.886Z,17.10
2022-12-08T08:03:04.692Z,16.40
2022-12-08T08:05:31.466Z,17.90
2022-12-08T08:07:58.137Z,17.67
2022-12-08T08:10:24.862Z,16.37
2022-12-08T08:12:52.914Z,16.83
2022-12-08T08:15:19.858Z,16.67
2022-12-08T08:17:49.994Z,15.70
2022-12-08T08:20:16.778Z,16.88
2022-12-08T08:22:44.952Z,18.08
2022-12-08T08:25:11.645Z,17.05
2022-12-08T08:27:38.328Z,17.33
2022-12-08T08:30:09.600Z,17.35
2022-12-08T08:32:37.742Z,17.65
2022-12-08T08:35:05.083Z,17.30
2022-12-08T08:37:31.894Z,17.77
2022-12-08T08:39:58.709Z,21.08
2022-12-08T08:42:25.317Z,18.52
2022-12-08T08:44:51.898Z,19.42
2022-12-08T08:47:19.833Z,19.20
2022-12-08T08:49:46.559Z,20.58
2022-12-08T08:52:13.115Z,20.95
2022-12-08T08:54:39.780Z,21.05
2022-12-08T08:57:06.728Z,19.85
2022-12-08T08:59:33.302Z,23.33
2022-12-08T09:02:03.468Z,21.13
2022-12-08T09:04:33.955Z,21.88
2022-12-08T09:07:00.597Z,21.77
2022-12-08T09:09:27.349Z,22.23
2022-12-08T09:11:54.047Z,18.93
2022-12-08T09:14:20.779Z,23.35
2022-12-08T09:16:47.399Z,22.10
2022-12-08T09:19:14.112Z,22.20
2022-12-08T09:21:42.099Z,20.98
2022-12-08T09:24:08.947Z,18.33
2022-12-08T09:26:35.498Z,22.50
2022-12-08T09:29:02.059Z,22.20
2022-12-08T09:31:28.678Z,23.27
2022-12-08T09:33:55.295Z,22.88
2022-12-08T09:36:21.963Z,20.23
2022-12-08T09:38:50.750Z,21.05
2022-12-08T09:41:23.575Z,24.08
2022-12-08T09:44:02.387Z,18.77
2022-12-08T09:46:32.130Z,18.10
2022-12-08T09:49:01.788Z,19.87
2022-12-08T09:51:33.359Z,20.25
2022-12-08T09:54:05.593Z,19.10
2022-12-08T09:56:33.919Z,18.65
2022-12-08T09:59:03.795Z,16.70
2022-12-08T10:01:38.876Z,16.43
2022-12-08T10:04:24.085Z,16.98
2022-12-08T10:07:03.660Z,18.23
2022-12-08T10:09:39.331Z,19.75
2022-12-08T10:12:16.581Z,21.42
2022-12-08T10:14:46.229Z,18.00
2022-12-08T10:17:22.332Z,19.45
2022-12-08T10:19:51.068Z,32.45
2022-12-08T10:22:22.615Z,21.17
2022-12-08T10:24:58.038Z,18.15
2022-12-08T10:27:25.190Z,17.73
2022-12-08T10:29:53.516Z,15.27
2022-12-08T10:32:24.216Z,15.48
2022-12-08T10:35:03.664Z,17.40
2022-12-08T10:37:30.272Z,14.85
2022-12-08T10:40:05.882Z,16.37
2022-12-08T10:42:37.255Z,16.13
2022-12-08T10:45:24.605Z,16.17
2022-12-08T10:47:59.093Z,14.95
2022-12-08T10:50:31.376Z,14.55
2022-12-08T10:52:59.250Z,17.57
2022-12-08T10:55:28.826Z,16.63
2022-12-08T10:57:55.490Z,17.58
2022-12-08T11:00:27.451Z,16.95
2022-12-08T11:02:58.428Z,16.90
2022-12-08T11:05:32.019Z,15.30
2022-12-08T11:07:58.899Z,14.55
2022-12-08T11:10:38.380Z,16.05
2022-12-08T11:13:12.011Z,13.05
2022-12-08T11:15:40.049Z,13.10
2022-12-08T11:18:10.153Z,16.13
2022-12-08T11:20:41.174Z,20.42
2022-12-08T11:23:20.398Z,15.98
2022-12-08T11:25:49.119Z,16.02
2022-12-08T11:28:24.071Z,15.10
2022-12-08T11:30:56.970Z,16.98
2022-12-08T11:33:27.410Z,15.13
2022-12-08T11:35:59.860Z,16.95
2022-12-08T11:38:28.019Z,18.40
2022-12-08T11:40:59.666Z,18.60
2022-12-08T11:43:40.838Z,18.75
2022-12-08T11:46:14.692Z,21.25
2022-12-08T11:48:46.608Z,27.77
2022-12-08T11:51:18.031Z,21.63
2022-12-08T11:53:51.084Z,22.02
2022-12-08T11:56:25.268Z,22.52
2022-12-08T11:58:56.609Z,17.00
2022-12-08T12:01:25.242Z,14.75
2022-12-08T12:04:02.876Z,14.80
2022-12-08T12:06:57.290Z,14.15
2022-12-08T12:09:36.315Z,13.33
2022-12-08T12:12:13.036Z,14.95
2022-12-08T12:14:55.271Z,15.27
2022-12-08T12:17:37.971Z,15.45
2022-12-08T12:20:13.538Z,13.45
2022-12-08T12:22:41.894Z,14.17
2022-12-08T12:25:17.859Z,15.02
2022-12-08T12:27:46.408Z,16.05
2022-12-08T12:30:20.652Z,15.43
2022-12-08T12:32:51.533Z,13.73
2022-12-08T12:35:27.368Z,13.48
2022-12-08T12:37:58.846Z,17.17
2022-12-08T12:40:28.498Z,18.05
2022-12-08T12:43:23.940Z,21.15
2022-12-08T12:45:50.574Z,19.42
2022-12-08T12:48:25.023Z,18.33
2022-12-08T12:50:54.754Z,21.00
2022-12-08T12:53:47.437Z,23.50
2022-12-08T12:56:48.814Z,14.60
2022-12-08T12:59:41.158Z,14.43
2022-12-08T13:02:19.053Z,13.70
2022-12-08T13:05:00.816Z,14.68
2022-12-08T13:07:30.783Z,14.32
2022-12-08T13:10:01.986Z,14.13
2022-12-08T13:12:34.168Z,16.63
2022-12-08T13:15:05.903Z,16.30
2022-12-08T13:17:38.011Z,16.92
2022-12-08T13:20:07.087Z,16.58
2022-12-08T13:22:49.815Z,15.40
2022-12-08T13:25:48.718Z,13.82
2022-12-08T13:28:23.376Z,13.35
2022-12-08T13:30:51.544Z,13.77
2022-12-08T13:33:23.008Z,15.25
2022-12-08T13:36:01.814Z,13.38
2022-12-08T13:38:31.941Z,14.50
2022-12-08T13:41:05.881Z,14.23
2022-12-08T13:43:55.651Z,14.77
2022-12-08T13:56:24.916Z,14.53
2022-12-08T13:57:56.012Z,12.82
2022-12-08T14:00:24.441Z,21.65
2022-12-08T14:02:55.675Z,15.65
2022-12-08T14:05:47.651Z,15.65
2022-12-08T14:08:36.362Z,15.33
2022-12-08T14:11:09.384Z,15.60
2022-12-08T14:13:37.723Z,14.95
2022-12-08T14:16:06.459Z,15.68
2022-12-08T14:18:33.058Z,15.10
2022-12-08T14:21:21.437Z,16.13
2022-12-08T14:23:48.437Z,17.80
2022-12-08T14:26:15.145Z,14.50
2022-12-08T14:28:45.034Z,17.55
2022-12-08T14:31:15.636Z,15.40
2022-12-08T14:33:42.653Z,16.03
2022-12-08T14:36:10.598Z,14.95
2022-12-08T14:38:37.277Z,18.52
2022-12-08T14:41:05.777Z,20.48
2022-12-08T14:43:33.028Z,16.05
2022-12-08T14:46:04.461Z,29.10
2022-12-08T14:48:42.300Z,33.22
2022-12-08T14:51:19.529Z,57.40
2022-12-08T14:53:52.241Z,52.65
2022-12-08T14:56:21.941Z,55.40
2022-12-08T14:58:50.667Z,29.92
2022-12-08T15:01:22.501Z,20.75
2022-12-08T15:03:51.634Z,19.00
2022-12-08T15:06:21.129Z,17.95
2022-12-08T15:08:54.795Z,15.82
2022-12-08T15:11:33.789Z,19.60
2022-12-08T15:14:00.889Z,15.18
2022-12-08T15:16:30.503Z,15.52
2022-12-08T15:19:06.059Z,13.98
2022-12-08T15:21:37.902Z,14.23
2022-12-08T15:24:05.073Z,15.10
2022-12-08T15:26:39.324Z,13.27
2022-12-08T15:29:11.949Z,15.48
2022-12-08T15:31:38.745Z,15.35
2022-12-08T15:34:09.897Z,15.82
2022-12-08T15:36:36.537Z,13.43
2022-12-08T15:39:03.282Z,15.30
2022-12-08T15:41:29.861Z,16.65
2022-12-08T15:43:56.807Z,19.85
2022-12-08T15:46:23.554Z,15.65
2022-12-08T15:48:54.953Z,15.43
2022-12-08T15:51:25.790Z,16.08
2022-12-08T15:53:52.459Z,15.20
2022-12-08T15:56:27.315Z,15.15
2022-12-08T15:58:56.476Z,16.52
2022-12-08T16:01:24.429Z,15.93
2022-12-08T16:09:34.615Z,16.02
2022-12-08T16:12:10.190Z,14.38
2022-12-08T16:17:25.780Z,16.08
2022-12-08T16:19:52.443Z,14.73
2022-12-08T16:25:18.133Z,15.93
2022-12-08T16:30:33.106Z,22.83
2022-12-08T16:32:59.729Z,24.20
2022-12-08T16:35:26.289Z,21.27
2022-12-08T16:37:54.309Z,21.20
2022-12-08T16:40:21.038Z,19.43
2022-12-08T16:42:47.700Z,16.52
2022-12-08T16:45:20.207Z,16.95
2022-12-08T16:47:49.935Z,16.17
2022-12-08T16:50:19.201Z,18.73
2022-12-08T16:52:46.254Z,19.67
2022-12-08T16:55:16.122Z,20.35
2022-12-08T16:57:43.443Z,22.80
2022-12-08T17:00:14.439Z,19.90
2022-12-08T17:02:41.089Z,22.00
2022-12-08T17:05:10.506Z,22.97
2022-12-08T17:07:38.569Z,24.25
2022-12-08T17:10:06.963Z,17.67
2022-12-08T17:12:37.968Z,22.27
2022-12-08T17:15:06.193Z,20.33
2022-12-08T17:17:33.660Z,19.43
2022-12-08T17:20:00.244Z,20.00
2022-12-08T17:22:26.907Z,24.27
2022-12-08T17:24:53.465Z,20.60
2022-12-08T17:27:20.329Z,24.17
2022-12-08T17:29:48.342Z,20.60
2022-12-08T17:32:15.046Z,20.88
2022-12-08T17:34:41.724Z,22.35
2022-12-08T17:37:08.310Z,22.25
2022-12-08T17:39:34.928Z,19.85
2022-12-08T17:42:01.608Z,22.70
2022-12-08T17:44:28.273Z,23.52
2022-12-08T17:46:56.468Z,21.95
2022-12-08T17:49:25.043Z,19.30
2022-12-08T17:51:53.218Z,19.25
2022-12-08T17:54:20.327Z,22.37
2022-12-08T17:56:47.170Z,21.85
2022-12-08T17:59:13.999Z,19.58
2022-12-08T18:01:41.134Z,22.27
2022-12-08T18:04:10.380Z,26.50
2022-12-08T18:06:38.461Z,24.10
2022-12-08T18:09:06.557Z,22.90
2022-12-08T18:11:34.836Z,21.20
2022-12-08T18:14:03.308Z,21.63
2022-12-08T18:16:29.998Z,17.05
2022-12-08T18:18:56.661Z,18.80
2022-12-08T18:21:24.633Z,18.30
2022-12-08T18:23:51.818Z,21.55
2022-12-08T18:26:19.443Z,18.65
2022-12-08T18:28:46.506Z,18.45
2022-12-08T18:31:15.738Z,20.75
2022-12-08T18:33:43.657Z,19.48
2022-12-08T18:36:12.244Z,25.20
2022-12-08T18:38:40.420Z,25.98
2022-12-08T18:41:09.218Z,22.20
2022-12-08T18:43:36.164Z,26.87
2022-12-08T18:46:04.073Z,28.80
2022-12-08T18:48:30.778Z,23.08
2022-12-08T18:50:57.342Z,23.67
2022-12-08T18:53:23.959Z,19.13
2022-12-08T18:55:51.955Z,15.83
2022-12-08T18:58:18.735Z,19.00
2022-12-08T19:00:45.434Z,19.40
2022-12-08T19:03:12.178Z,20.45
2022-12-08T19:05:38.988Z,18.30
2022-12-08T19:08:06.305Z,23.30
2022-12-08T19:10:35.599Z,21.80
2022-12-08T19:13:04.077Z,17.80
2022-12-08T19:15:30.920Z,18.75
2022-12-08T19:17:57.624Z,17.30
2022-12-08T19:20:24.275Z,18.73
2022-12-08T19:22:50.876Z,17.27
2022-12-08T19:25:17.545Z,17.92
2022-12-08T19:27:44.140Z,25.23
2022-12-08T19:30:13.281Z,20.42
2022-12-08T19:32:39.896Z,18.88
2022-12-08T19:35:07.986Z,19.30
2022-12-08T19:37:35.055Z,18.77
2022-12-08T19:40:01.807Z,19.70
2022-12-08T19:42:28.552Z,18.85
2022-12-08T19:44:55.305Z,20.13
2022-12-08T19:47:25.648Z,19.33
2022-12-08T19:49:53.796Z,19.85
2022-12-08T19:52:21.358Z,19.02
2022-12-08T19:54:48.033Z,21.05
2022-12-08T19:57:14.605Z,20.27
2022-12-08T19:59:41.291Z,23.83
2022-12-08T20:02:07.994Z,26.13
2022-12-08T20:04:36.094Z,23.20
2022-12-08T20:07:02.668Z,24.77
2022-12-08T20:09:29.243Z,22.57
2022-12-08T20:11:55.894Z,22.92
2022-12-08T20:14:23.095Z,22.45
2022-12-08T20:16:50.194Z,22.38
2022-12-08T20:19:17.021Z,22.05
2022-12-08T20:21:44.962Z,20.37
2022-12-08T20:24:11.580Z,22.20
2022-12-08T20:26:38.259Z,21.25
2022-12-08T20:29:04.884Z,22.65
2022-12-08T20:31:32.580Z,22.42
2022-12-08T20:33:59.638Z,19.77
2022-12-08T20:36:26.373Z,18.17
2022-12-08T20:38:54.923Z,16.77
2022-12-08T20:41:22.141Z,18.58
2022-12-08T20:43:48.917Z,18.40
2022-12-08T20:46:17.248Z,17.57
2022-12-08T20:48:44.219Z,19.42
2022-12-08T20:51:13.094Z,18.25
2022-12-08T20:53:39.755Z,18.40
2022-12-08T20:56:08.101Z,19.23
2022-12-08T20:58:34.811Z,20.60
2022-12-08T21:01:01.536Z,19.42
2022-12-08T21:03:28.443Z,20.17
2022-12-08T21:05:55.260Z,17.95
2022-12-08T21:08:21.965Z,17.33
2022-12-08T21:10:53.799Z,19.97
2022-12-08T21:13:21.896Z,16.80
2022-12-08T21:15:48.636Z,18.35
2022-12-08T21:18:15.590Z,22.35
2022-12-08T21:20:42.352Z,19.63
2022-12-08T21:23:09.255Z,18.60
2022-12-08T21:25:39.800Z,18.15
2022-12-08T21:28:06.507Z,19.48
2022-12-08T21:30:34.680Z,22.35
2022-12-08T21:33:01.513Z,19.92
2022-12-08T21:35:28.535Z,19.20
2022-12-08T21:37:55.277Z,18.25
2022-12-08T21:40:22.004Z,19.65
2022-12-08T21:42:48.739Z,17.65
2022-12-08T21:45:17.226Z,16.75
2022-12-08T21:47:47.158Z,20.07
2022-12-08T21:50:15.034Z,18.45
2022-12-08T21:52:44.131Z,18.10
2022-12-08T21:55:12.076Z,22.00
2022-12-08T21:57:38.948Z,18.35
2022-12-08T22:00:09.570Z,17.10
2022-12-08T22:02:36.472Z,17.25
2022-12-08T22:05:05.750Z,17.35
2022-12-08T22:07:32.406Z,19.00
2022-12-08T22:09:59.071Z,19.08
2022-12-08T22:12:25.779Z,17.50
2022-12-08T22:14:54.760Z,20.63
2022-12-08T22:17:21.424Z,29.48
2022-12-08T22:19:48.167Z,21.77
2022-12-08T22:22:16.215Z,17.63
2022-12-08T22:24:43.274Z,20.70
2022-12-08T22:27:09.841Z,21.30
2022-12-08T22:29:36.445Z,19.38
2022-12-08T22:32:03.350Z,18.27
2022-12-08T22:34:32.330Z,24.02
2022-12-08T22:36:59.103Z,19.57
2022-12-08T22:39:27.109Z,19.33
2022-12-08T22:41:53.691Z,19.15
2022-12-08T22:44:20.272Z,19.63
2022-12-08T22:46:46.962Z,19.20
2022-12-08T22:49:14.022Z,19.17
2022-12-08T22:51:40.783Z,19.10
2022-12-08T22:54:09.982Z,21.90
2022-12-08T22:56:38.223Z,20.63
2022-12-08T22:59:05.425Z,18.15
2022-12-08T23:01:33.196Z,17.97
2022-12-08T23:04:01.264Z,20.45
2022-12-08T23:06:29.900Z,19.75
2022-12-08T23:08:56.719Z,19.65
2022-12-08T23:11:27.835Z,19.70
2022-12-08T23:13:57.215Z,19.73
2022-12-08T23:16:23.936Z,17.38
2022-12-08T23:18:50.937Z,22.45
2022-12-08T23:21:19.847Z,18.23
2022-12-08T23:23:46.703Z,20.10
2022-12-08T23:26:19.830Z,18.20
2022-12-08T23:28:46.938Z,21.02
2022-12-08T23:31:17.790Z,18.20
2022-12-08T23:33:44.483Z,23.20
2022-12-08T23:36:12.429Z,18.38
2022-12-08T23:38:39.398Z,17.67
2022-12-08T23:41:07.767Z,19.80
2022-12-08T23:43:35.228Z,19.60
2022-12-08T23:46:05.101Z,19.05
2022-12-08T23:48:33.606Z,18.40
2022-12-08T23:51:00.432Z,27.50
2022-12-08T23:53:28.875Z,19.30
2022-12-08T23:55:58.879Z,20.20
2022-12-08T23:58:25.932Z,23.60
